Time;durP1;ratioP1;P1;durP2;ratioP2;P2;SDS_P1;SDS_P2;PMS_P1;PMS_P2;Temp;Humidity;BMP_temperature;BMP_pressure;BME280_temperature;BME280_humidity;BME280_pressure;Samples;Min_cycle;Max_cycle;Signal;HPM_P1;HPM_P2
2022/11/29 00:00:48;;;;;;;1.00;0.50;;;;;;;6.27;100.00;96236.31;4976044;28;20057;-75
2022/11/29 00:03:34;;;;;;;;;;;;;;;6.27;100.00;96233.66;4975612;28;20234;-73
2022/11/29 00:06:22;;;;;;;0.43;0.30;;;;;;;6.32;100.00;96232.97;4952505;28;19921;-73
2022/11/29 00:09:11;;;;;;;0.60;0.30;;;;;;;6.30;100.00;96229.72;4976387;28;20595;-75
2022/11/29 00:12:30;;;;;;;0.60;0.30;;;;;;;6.30;100.00;96227.91;4977291;28;20057;-71
2022/11/29 00:15:10;;;;;;;0.82;0.40;;;;;;;6.24;100.00;96225.34;4978167;28;20073;-72
2022/11/29 00:17:56;;;;;;;0.20;0.20;;;;;;;6.24;100.00;96242.09;4963517;28;20092;-73
2022/11/29 00:20:42;;;;;;;0.20;0.20;;;;;;;6.20;100.00;96232.94;4973023;28;20694;-73
2022/11/29 00:23:28;;;;;;;0.63;0.30;;;;;;;6.23;100.00;96229.84;4973265;28;20045;-73
2022/11/29 00:26:13;;;;;;;0.35;0.30;;;;;;;6.21;100.00;96241.72;4977379;28;20075;-71
2022/11/29 00:28:59;;;;;;;0.50;0.30;;;;;;;6.26;100.00;96239.19;4973490;28;20073;-74
2022/11/29 00:31:45;;;;;;;0.90;0.50;;;;;;;6.28;100.00;96235.25;4976116;28;20125;-74
2022/11/29 00:34:33;;;;;;;0.73;0.40;;;;;;;6.30;100.00;96230.56;4974495;28;20045;-74
2022/11/29 00:37:19;;;;;;;1.17;0.50;;;;;;;6.28;100.00;96239.78;4972709;28;20046;-72
2022/11/29 00:40:05;;;;;;;1.88;0.75;;;;;;;6.27;100.00;96231.00;4954381;28;20570;-73
2022/11/29 00:42:51;;;;;;;0.68;0.40;;;;;;;6.27;100.00;96236.31;4976575;28;20073;-71
2022/11/29 00:45:37;;;;;;;1.27;0.70;;;;;;;6.30;100.00;96240.34;4974290;28;20053;-73
2022/11/29 00:48:23;;;;;;;0.57;0.30;;;;;;;6.31;100.00;96237.50;4962579;28;20300;-74
2022/11/29 00:51:09;;;;;;;2.20;1.17;;;;;;;6.35;100.00;96235.97;4974314;28;20042;-72
2022/11/29 00:53:55;;;;;;;0.30;0.30;;;;;;;6.31;100.00;96242.81;4975512;28;20218;-70
2022/11/29 00:56:41;;;;;;;1.80;0.90;;;;;;;6.24;100.00;96238.63;4974122;28;20044;-73
2022/11/29 00:59:26;;;;;;;1.75;0.80;;;;;;;6.27;100.00;96241.63;4971876;28;20306;-74
2022/11/29 01:02:12;;;;;;;0.77;0.45;;;;;;;6.22;100.00;96240.66;4975634;28;20053;-72
2022/11/29 01:04:58;;;;;;;0.70;0.40;;;;;;;6.22;100.00;96240.66;4974415;28;20547;-73
2022/11/29 01:07:44;;;;;;;1.60;0.98;;;;;;;6.23;100.00;96235.16;4973424;28;20557;-74
2022/11/29 01:10:30;;;;;;;1.88;0.98;;;;;;;6.23;100.00;96231.69;4962109;28;20122;-74
2022/11/29 01:13:19;;;;;;;2.50;1.48;;;;;;;6.28;100.00;96245.09;4972401;28;20239;-72
2022/11/29 01:16:06;;;;;;;1.85;1.10;;;;;;;6.28;100.00;96243.25;4967955;28;20347;-74
2022/11/29 01:18:52;;;;;;;2.20;1.13;;;;;;;6.30;100.00;96248.31;4972222;28;20297;-72
2022/11/29 01:21:38;;;;;;;1.60;0.90;;;;;;;6.20;100.00;96240.09;4974308;28;20197;-72
2022/11/29 01:24:23;;;;;;;1.88;1.08;;;;;;;6.25;100.00;96250.88;4975663;28;20403;-71
2022/11/29 01:27:09;;;;;;;1.83;1.00;;;;;;;6.21;100.00;96255.00;4973641;28;20577;-73
2022/11/29 01:29:55;;;;;;;0.95;0.50;;;;;;;6.13;100.00;96256.13;4972519;28;20536;-72
2022/11/29 01:32:41;;;;;;;1.58;0.98;;;;;;;6.13;100.00;96256.94;4975574;28;20674;-69
2022/11/29 01:35:27;;;;;;;1.70;0.95;;;;;;;6.13;100.00;96262.25;4974554;28;20085;-74
2022/11/29 01:38:13;;;;;;;2.10;1.10;;;;;;;6.12;100.00;96259.81;4954406;28;20358;-74
2022/11/29 01:41:08;;;;;;;1.98;1.10;;;;;;;6.13;100.00;96261.44;4967029;28;20156;-72
2022/11/29 01:44:09;;;;;;;2.22;1.20;;;;;;;6.13;100.00;96259.59;4972692;28;20369;-71
2022/11/29 01:46:55;;;;;;;2.35;1.48;;;;;;;6.15;100.00;96262.03;4973470;28;20822;-70
2022/11/29 01:49:44;;;;;;;2.33;1.27;;;;;;;6.16;100.00;96261.00;4971610;28;20039;-73
2022/11/29 01:52:31;;;;;;;1.70;0.70;;;;;;;6.18;100.00;96252.81;4975179;28;20454;-74
2022/11/29 01:55:18;;;;;;;2.92;1.90;;;;;;;6.21;100.00;96261.13;4973819;28;20572;-72
2022/11/29 01:58:06;;;;;;;2.90;2.05;;;;;;;6.23;100.00;96269.69;4974654;28;20302;-73
2022/11/29 02:00:53;;;;;;;2.95;2.00;;;;;;;6.24;100.00;96259.88;4961880;28;20095;-72
2022/11/29 02:03:39;;;;;;;2.95;1.98;;;;;;;6.24;100.00;96262.53;4961002;28;20450;-75
2022/11/29 02:06:27;;;;;;;3.00;2.00;;;;;;;6.28;100.00;96259.19;4971893;28;20275;-71
2022/11/29 02:09:21;;;;;;;2.85;1.88;;;;;;;6.29;100.00;96258.16;4973869;28;20041;-74
2022/11/29 02:12:21;;;;;;;3.13;2.20;;;;;;;6.31;100.00;96268.56;4973954;28;20434;-73
2022/11/29 02:15:23;;;;;;;2.72;1.90;;;;;;;6.28;100.00;96258.38;4973707;28;20077;-71
2022/11/29 02:18:13;;;;;;;2.25;1.38;;;;;;;6.20;100.00;96256.84;4973542;28;20338;-74
2022/11/29 02:21:04;;;;;;;1.77;0.95;;;;;;;6.18;100.00;96261.59;4966104;28;20089;-71
2022/11/29 02:24:14;;;;;;;2.55;1.58;;;;;;;6.24;100.00;96262.53;4970923;28;20365;-74
2022/11/29 02:27:24;;;;;;;2.50;1.38;;;;;;;6.21;100.00;96258.47;4977535;28;20084;-69
2022/11/29 02:30:19;;;;;;;3.00;2.05;;;;;;;6.23;100.00;96272.34;4974061;28;20073;-74
2022/11/29 02:33:08;;;;;;;1.05;0.52;;;;;;;6.20;100.00;96258.69;4977154;28;20031;-74
2022/11/29 02:36:31;;;;;;;1.40;0.73;;;;;;;6.18;100.00;96269.56;4968584;28;20465;-73
2022/11/29 02:39:48;;;;;;;0.90;0.43;;;;;;;6.13;100.00;96272.06;4976834;28;20034;-74
2022/11/29 02:43:12;;;;;;;1.45;0.80;;;;;;;6.12;100.00;96265.13;4977133;28;20415;-72
2022/11/29 02:46:11;;;;;;;2.00;1.20;;;;;;;6.09;100.00;96270.91;4979252;28;20039;-71
2022/11/29 02:49:09;;;;;;;2.55;1.60;;;;;;;6.09;100.00;96268.25;4978293;28;20055;-72
2022/11/29 02:52:02;;;;;;;2.00;1.17;;;;;;;6.11;100.00;96274.94;4978876;28;20026;-72
2022/11/29 02:55:03;;;;;;;2.00;1.13;;;;;;;6.13;100.00;96272.88;4963541;28;20446;-75
2022/11/29 02:57:54;;;;;;;1.98;1.00;;;;;;;6.13;100.00;96274.72;4969971;28;20096;-73
2022/11/29 03:00:50;;;;;;;2.33;1.33;;;;;;;6.19;100.00;96276.50;4977535;28;20042;-72
2022/11/29 03:03:54;;;;;;;2.00;1.30;;;;;;;6.18;100.00;96279.38;4975680;28;20200;-75
2022/11/29 03:06:55;;;;;;;1.65;0.90;;;;;;;6.19;100.00;96284.47;4977218;28;20081;-73
2022/11/29 03:09:52;;;;;;;0.57;0.30;;;;;;;6.10;100.00;96278.66;4975726;28;20557;-71
2022/11/29 03:12:50;;;;;;;0.60;0.32;;;;;;;6.08;100.00;96271.94;4968688;28;20041;-73
2022/11/29 03:15:58;;;;;;;1.27;0.68;;;;;;;6.07;100.00;96279.09;4978743;28;20061;-73
2022/11/29 03:18:59;;;;;;;1.08;0.55;;;;;;;6.13;100.00;96282.69;4978945;28;20485;-74
2022/11/29 03:22:09;;;;;;;2.60;1.80;;;;;;;6.12;100.00;96279.22;4976584;28;20085;-73
2022/11/29 03:25:06;;;;;;;1.88;1.00;;;;;;;6.18;100.00;96282.84;4977763;28;20370;-71
2022/11/29 03:27:54;;;;;;;1.95;0.95;;;;;;;6.17;100.00;96289.19;4976034;28;20092;-74
2022/11/29 03:30:47;;;;;;;1.80;0.90;;;;;;;6.20;100.00;96283.41;4975657;28;20707;-69
2022/11/29 03:33:40;;;;;;;2.03;1.23;;;;;;;6.20;100.00;96291.38;4977120;28;20411;-71
2022/11/29 03:36:42;;;;;;;1.30;0.60;;;;;;;6.13;100.00;96288.00;4976861;28;20042;-70
2022/11/29 03:39:37;;;;;;;1.88;1.05;;;;;;;6.17;100.00;96291.03;4977346;28;20865;-70
2022/11/29 03:42:38;;;;;;;2.08;1.05;;;;;;;6.20;100.00;96294.03;4968358;28;20472;-74
2022/11/29 03:45:24;;;;;;;;;;;;;;;6.24;100.00;96297.09;4975766;28;20379;-71
2022/11/29 03:48:26;;;;;;;2.15;1.25;;;;;;;6.25;100.00;96290.72;4961569;28;20137;-72
2022/11/29 03:51:35;;;;;;;1.40;0.60;;;;;;;6.22;100.00;96293.81;4968216;28;20488;-74
2022/11/29 03:54:36;;;;;;;1.88;0.93;;;;;;;6.24;100.00;96295.22;4975790;28;20045;-71
2022/11/29 03:57:29;;;;;;;;;;;;;;;6.24;100.00;96295.22;4978813;28;20042;-75
2022/11/29 04:00:17;;;;;;;1.77;0.95;;;;;;;6.22;100.00;96296.47;4978197;28;19913;-73
2022/11/29 04:03:17;;;;;;;2.17;1.40;;;;;;;6.28;100.00;96307.03;4977462;28;20545;-74
2022/11/29 04:06:24;;;;;;;2.95;1.90;;;;;;;6.30;100.00;96299.66;4978577;28;20193;-74
2022/11/29 04:09:43;;;;;;;3.28;2.00;;;;;;;6.34;100.00;96305.31;4966508;28;20758;-74
2022/11/29 04:12:48;;;;;;;2.30;1.35;;;;;;;6.33;100.00;96303.69;4977982;28;20579;-74
2022/11/29 04:15:36;;;;;;;2.88;1.55;;;;;;;6.35;100.00;96307.75;4964560;28;20117;-75
2022/11/29 04:18:47;;;;;;;2.85;1.90;;;;;;;6.34;100.00;96300.81;4976333;28;20153;-73
2022/11/29 04:21:44;;;;;;;2.97;1.88;;;;;;;6.35;100.00;96307.75;4976376;28;20046;-74
2022/11/29 04:24:39;;;;;;;2.58;1.50;;;;;;;6.33;100.00;96307.16;4975511;28;20030;-75
2022/11/29 04:27:40;;;;;;;2.97;1.92;;;;;;;6.29;100.00;96305.97;4976967;28;20038;-75
2022/11/29 04:30:33;;;;;;;2.97;1.83;;;;;;;6.32;100.00;96313.53;4975787;28;20054;-72
2022/11/29 04:33:56;;;;;;;4.03;2.85;;;;;;;6.27;100.00;96316.03;4975843;28;20034;-72
2022/11/29 04:37:01;;;;;;;4.28;2.97;;;;;;;6.28;100.00;96317.66;4978363;28;20245;-71
2022/11/29 04:40:17;;;;;;;2.58;1.52;;;;;;;6.29;100.00;96321.91;4974755;28;20050;-75
2022/11/29 04:43:28;;;;;;;2.40;1.50;;;;;;;6.29;100.00;96332.56;4976956;28;20615;-73
2022/11/29 04:46:32;;;;;;;3.70;2.47;;;;;;;6.28;100.00;96322.97;4969007;28;20038;-75
2022/11/29 04:49:36;;;;;;;3.13;1.90;;;;;;;6.27;100.00;96324.00;4976729;28;20069;-75
2022/11/29 04:52:31;;;;;;;2.53;1.50;;;;;;;6.26;100.00;96333.00;4974327;28;20069;-74
2022/11/29 04:55:46;;;;;;;4.93;3.40;;;;;;;6.28;100.00;96340.75;4973462;28;20045;-72
2022/11/29 04:58:38;;;;;;;3.67;2.50;;;;;;;6.24;100.00;96343.06;4970919;28;20039;-71
2022/11/29 05:02:00;;;;;;;2.60;1.63;;;;;;;6.22;100.00;96344.31;4976761;28;20185;-72
2022/11/29 05:05:05;;;;;;;2.88;2.08;;;;;;;6.25;100.00;96351.84;4976269;28;20145;-74
2022/11/29 05:08:19;;;;;;;3.25;2.33;;;;;;;6.24;100.00;96347.56;4951933;28;20530;-71
2022/11/29 05:11:28;;;;;;;2.90;1.83;;;;;;;6.25;100.00;96357.16;4947869;28;20043;-75
2022/11/29 05:14:23;;;;;;;2.00;0.93;;;;;;;6.17;100.00;96358.28;4917980;28;20398;-74
2022/11/29 05:17:36;;;;;;;2.78;1.58;;;;;;;6.22;100.00;96370.88;4948881;28;20495;-73
2022/11/29 05:20:52;;;;;;;3.30;2.17;;;;;;;6.24;100.00;96359.00;4945731;28;20123;-71
2022/11/29 05:24:10;;;;;;;3.08;1.85;;;;;;;6.25;100.00;96367.78;4944342;28;20078;-75
2022/11/29 05:27:27;;;;;;;3.47;2.45;;;;;;;6.29;100.00;96367.09;4948771;28;20442;-73
2022/11/29 05:30:13;;;;;;;6.13;4.28;;;;;;;6.25;100.00;96359.81;4946671;28;20499;-74
2022/11/29 05:33:01;;;;;;;4.18;2.90;;;;;;;6.27;100.00;96373.69;4935694;28;20542;-74
2022/11/29 05:36:06;;;;;;;5.45;3.78;;;;;;;6.25;100.00;96376.56;4945592;28;20116;-72
2022/11/29 05:39:04;;;;;;;3.50;2.30;;;;;;;6.25;100.00;96381.88;4944317;28;20138;-74
2022/11/29 05:41:56;;;;;;;4.13;2.92;;;;;;;6.27;100.00;96389.63;4946275;28;20061;-72
2022/11/29 05:45:14;;;;;;;4.13;2.90;;;;;;;6.26;100.00;96394.13;4943556;28;20043;-74
2022/11/29 05:48:31;;;;;;;4.22;2.88;;;;;;;6.25;100.00;96391.69;4938714;28;20046;-74
2022/11/29 05:51:39;;;;;;;3.83;2.47;;;;;;;6.17;100.00;96384.03;4948556;28;20205;-73
2022/11/29 05:54:59;;;;;;;4.35;2.85;;;;;;;6.17;100.00;96395.47;4949855;28;20499;-73
2022/11/29 05:57:45;;;;;;;5.20;3.42;;;;;;;6.19;100.00;96395.25;4932510;28;20153;-73
2022/11/29 06:00:43;;;;;;;2.95;2.08;;;;;;;6.14;100.00;96393.25;4945474;28;20050;-75
2022/11/29 06:03:38;;;;;;;4.07;2.75;;;;;;;6.15;100.00;96408.16;4947447;28;20431;-73
2022/11/29 06:06:42;;;;;;;4.45;2.78;;;;;;;6.19;100.00;96413.84;4933384;28;20336;-74
2022/11/29 06:09:42;;;;;;;4.43;2.70;;;;;;;6.17;100.00;96406.09;4939559;28;20169;-71
2022/11/29 06:12:34;;;;;;;5.25;3.53;;;;;;;6.22;100.00;96414.19;4929065;28;20055;-72
2022/11/29 06:15:28;;;;;;;3.88;2.53;;;;;;;6.23;100.00;96415.84;4942375;28;20812;-73
2022/11/29 06:18:27;;;;;;;3.58;2.17;;;;;;;6.22;100.00;96419.50;4941679;28;20476;-75
2022/11/29 06:21:32;;;;;;;3.78;2.28;;;;;;;6.21;100.00;96415.25;4940071;28;20046;-72
2022/11/29 06:24:35;;;;;;;5.40;3.70;;;;;;;6.25;100.00;96418.28;4942038;28;20499;-74
2022/11/29 06:27:49;;;;;;;3.92;2.60;;;;;;;6.26;100.00;96423.38;4932621;28;20655;-74
2022/11/29 06:30:50;;;;;;;3.30;2.03;;;;;;;6.26;100.00;96418.06;4926242;28;20046;-73
2022/11/29 06:34:06;;;;;;;4.07;2.53;;;;;;;6.30;100.00;96424.56;4938011;28;20058;-75
2022/11/29 06:37:03;;;;;;;5.00;3.20;;;;;;;6.28;100.00;96415.97;4936957;28;20122;-73
2022/11/29 06:39:49;;;;;;;5.60;3.45;;;;;;;6.29;100.00;96425.56;4937606;28;20047;-71
2022/11/29 06:42:35;;;;;;;4.55;2.80;;;;;;;6.32;100.00;96419.81;4940446;28;20043;-73
2022/11/29 06:45:22;;;;;;;4.78;3.30;;;;;;;6.34;100.00;96425.72;4938600;28;20094;-74
2022/11/29 06:48:13;;;;;;;4.30;2.85;;;;;;;6.33;100.00;96429.41;4923194;28;20126;-72
2022/11/29 06:51:02;;;;;;;5.40;3.22;;;;;;;6.35;100.00;96430.00;4940111;28;20117;-74
2022/11/29 06:54:11;;;;;;;5.10;3.22;;;;;;;6.33;100.00;96436.59;4924593;28;20051;-72
2022/11/29 06:57:00;;;;;;;3.63;2.10;;;;;;;6.36;100.00;96434.28;4930983;28;20050;-73
2022/11/29 07:00:10;;;;;;;7.38;4.40;;;;;;;6.34;100.00;96435.53;4936603;28;20513;-73
2022/11/29 07:03:41;;;;;;;4.05;2.58;;;;;;;6.36;100.00;96442.25;4938408;28;20097;-72
2022/11/29 07:06:31;;;;;;;6.47;3.95;;;;;;;6.34;100.00;96443.53;4915249;28;20058;-74
2022/11/29 07:09:20;;;;;;;4.82;2.83;;;;;;;6.34;100.00;96438.19;4958956;28;20570;-71
2022/11/29 07:12:09;;;;;;;3.28;1.95;;;;;;;6.38;100.00;96450.00;4959467;28;20047;-73
2022/11/29 07:14:55;;;;;;;3.00;1.80;;;;;;;6.29;100.00;96444.16;4961896;28;20273;-73
2022/11/29 07:17:50;;;;;;;4.03;2.42;;;;;;;6.34;100.00;96454.97;4958889;28;20073;-73
2022/11/29 07:20:48;;;;;;;4.28;2.55;;;;;;;6.28;100.00;96445.22;4960692;28;20038;-73
2022/11/29 07:23:48;;;;;;;5.47;3.28;;;;;;;6.25;100.00;96450.16;4960372;28;20052;-73
2022/11/29 07:27:05;;;;;;;3.85;2.35;;;;;;;6.27;100.00;96458.72;4959961;28;20096;-71
2022/11/29 07:30:30;;;;;;;3.80;2.22;;;;;;;6.30;100.00;96456.44;4958799;28;20149;-72
2022/11/29 07:33:20;;;;;;;3.40;1.90;;;;;;;6.35;100.00;96459.25;4562647;28;9999884;-74
2022/11/29 07:36:20;;;;;;;4.72;2.85;;;;;;;6.31;100.00;96468.69;4924588;28;20031;-73
2022/11/29 07:39:13;;;;;;;4.53;2.70;;;;;;;6.35;100.00;96469.06;4957686;28;20092;-73
2022/11/29 07:42:18;;;;;;;3.47;2.13;;;;;;;6.33;100.00;96471.94;4959007;28;21020;-70
2022/11/29 07:45:15;;;;;;;4.57;2.92;;;;;;;6.25;100.00;96474.91;4943564;28;20045;-74
2022/11/29 07:48:01;;;;;;;2.42;1.35;;;;;;;6.21;100.00;96476.34;4955799;28;20498;-73
2022/11/29 07:50:49;;;;;;;3.67;2.15;;;;;;;6.18;100.00;96471.50;4954440;28;20086;-74
2022/11/29 07:53:41;;;;;;;3.45;1.92;;;;;;;6.25;100.00;96474.91;4959327;28;20564;-73
2022/11/29 07:56:26;;;;;;;;;;;;;;;6.19;100.00;96478.44;4960328;28;20053;-72
2022/11/29 07:59:13;;;;;;;3.13;1.90;;;;;;;6.15;100.00;96474.59;4956040;28;20393;-73
2022/11/29 08:01:59;;;;;;;2.78;1.52;;;;;;;6.16;100.00;96484.19;4956624;28;20058;-70
2022/11/29 08:04:45;;;;;;;2.58;1.50;;;;;;;6.13;100.00;96482.75;4957151;28;20531;-73
2022/11/29 08:07:34;;;;;;;3.08;2.03;;;;;;;6.19;100.00;96488.25;4960472;28;20447;-73
2022/11/29 08:10:19;;;;;;;2.60;1.45;;;;;;;6.20;100.00;96490.66;4960847;28;20522;-73
2022/11/29 08:13:05;;;;;;;2.85;1.70;;;;;;;6.21;100.00;96486.97;4957811;28;20292;-72
2022/11/29 08:15:51;;;;;;;3.42;2.00;;;;;;;6.24;100.00;96493.72;4957391;28;20955;-75
2022/11/29 08:18:37;;;;;;;3.60;2.20;;;;;;;6.23;100.00;96492.91;4961292;28;20108;-75
2022/11/29 08:21:23;;;;;;;3.65;2.08;;;;;;;6.25;100.00;96498.81;4958831;28;20074;-76
2022/11/29 08:24:09;;;;;;;4.13;2.67;;;;;;;6.30;100.00;96498.13;4956742;28;20458;-76
2022/11/29 08:26:55;;;;;;;4.00;2.70;;;;;;;6.29;100.00;96505.28;4956908;28;20388;-76
2022/11/29 08:29:41;;;;;;;2.95;1.83;;;;;;;6.29;100.00;96505.28;4953560;28;20042;-73
2022/11/29 08:32:27;;;;;;;4.88;3.03;;;;;;;6.34;100.00;96507.31;4957973;28;20055;-74
2022/11/29 08:35:13;;;;;;;3.92;2.58;;;;;;;6.42;100.00;96518.47;4956724;28;20848;-72
2022/11/29 08:37:59;;;;;;;3.65;2.35;;;;;;;6.45;100.00;96517.19;4960342;28;20042;-72
2022/11/29 08:40:45;;;;;;;4.47;2.70;;;;;;;6.48;100.00;96529.25;4969298;28;20121;-75
2022/11/29 08:43:31;;;;;;;2.60;1.50;;;;;;;6.45;100.00;96527.00;4955757;28;20156;-74
2022/11/29 08:46:17;;;;;;;2.90;1.80;;;;;;;6.38;100.00;96532.41;4959807;28;20661;-73
2022/11/29 08:49:03;;;;;;;3.30;1.90;;;;;;;6.39;100.00;96526.06;4956910;28;20049;-72
2022/11/29 08:51:52;;;;;;;5.30;3.33;;;;;;;6.38;100.00;96538.56;4955624;28;20050;-74
2022/11/29 08:54:38;;;;;;;3.75;2.47;;;;;;;6.46;100.00;96541.94;4958619;28;20046;-76
2022/11/29 08:57:24;;;;;;;3.80;2.45;;;;;;;6.45;100.00;96542.97;4968172;28;20058;-73
2022/11/29 09:00:11;;;;;;;3.88;2.67;;;;;;;6.45;100.00;96546.44;4956541;28;20043;-74
2022/11/29 09:03:58;;;;;;;3.22;2.10;;;;;;;6.44;100.00;96550.13;4952801;28;20050;-73
2022/11/29 09:06:08;;;;;;;3.25;1.92;;;;;;;6.40;100.00;96554.28;4958964;28;20053;-75
2022/11/29 09:08:55;;;;;;;4.25;2.60;;;;;;;6.38;100.00;96551.84;4958369;28;20038;-76
2022/11/29 09:11:42;;;;;;;3.22;2.08;;;;;;;6.44;100.00;96555.44;4958331;28;20042;-75
2022/11/29 09:14:28;;;;;;;4.05;2.55;;;;;;;6.47;100.00;96560.34;4960461;28;20046;-75
2022/11/29 09:17:14;;;;;;;3.38;2.13;;;;;;;6.53;100.00;96553.31;4956828;28;20055;-75
2022/11/29 09:19:59;;;;;;;3.72;2.10;;;;;;;6.56;100.00;96566.19;4959573;28;20043;-73
2022/11/29 09:22:45;;;;;;;2.70;1.60;;;;;;;6.66;100.00;96563.81;4958309;28;20127;-76
2022/11/29 09:25:31;;;;;;;2.88;1.77;;;;;;;6.67;100.00;96570.75;4959533;28;20201;-74
2022/11/29 09:28:17;;;;;;;2.35;1.20;;;;;;;6.67;100.00;96570.75;4958953;28;20054;-74
2022/11/29 09:31:08;;;;;;;2.75;1.52;;;;;;;6.71;100.00;96571.97;4956856;28;20567;-76
2022/11/29 09:33:55;;;;;;;3.35;2.25;;;;;;;6.69;100.00;96574.84;4958167;28;20570;-75
2022/11/29 09:36:43;;;;;;;4.00;2.38;;;;;;;6.74;100.00;96576.00;4958164;28;20077;-76
2022/11/29 09:39:28;;;;;;;3.65;2.30;;;;;;;6.83;100.00;96580.81;4970192;28;20085;-76
2022/11/29 09:42:31;;;;;;;2.58;1.63;;;;;;;6.87;100.00;96575.88;4963161;28;20959;-75
2022/11/29 09:45:25;;;;;;;3.10;1.92;;;;;;;6.95;100.00;96578.25;4956955;28;20046;-75
2022/11/29 09:48:14;;;;;;;3.10;1.70;;;;;;;6.83;100.00;96583.47;4967908;28;20109;-71
2022/11/29 09:51:37;;;;;;;3.33;2.20;;;;;;;6.79;100.00;96584.97;4956680;28;20046;-75
2022/11/29 09:55:09;;;;;;;2.67;1.65;;;;;;;6.82;100.00;96591.69;4952887;28;20078;-77
2022/11/29 09:57:58;;;;;;;4.47;3.05;;;;;;;6.82;100.00;96589.81;4945742;28;20200;-76
2022/11/29 10:00:48;;;;;;;3.00;1.92;;;;;;;6.85;100.00;96588.59;4956801;28;20051;-74
2022/11/29 10:03:43;;;;;;;3.10;2.03;;;;;;;6.80;100.00;96593.75;4955526;28;20054;-76
2022/11/29 10:07:05;;;;;;;4.00;2.83;;;;;;;6.86;100.00;96599.00;4958705;28;20059;-76
2022/11/29 10:10:01;;;;;;;3.20;2.03;;;;;;;6.89;100.00;96593.22;4926934;28;20428;-73
2022/11/29 10:13:00;;;;;;;3.13;2.13;;;;;;;6.91;100.00;96593.81;4953637;28;20054;-74
2022/11/29 10:16:11;;;;;;;;;;;;;;;6.94;100.00;96592.56;4960307;28;20073;-74
2022/11/29 10:19:36;;;;;;;0.30;0.30;;;;;;;6.93;100.00;96586.44;4971780;28;19945;-73
2022/11/29 10:22:40;;;;;;;0.10;0.10;;;;;;;6.91;100.00;96590.34;4958048;28;20053;-75
2022/11/29 10:25:43;;;;;;;0.15;0.15;;;;;;;6.98;100.00;96594.56;4958220;28;20089;-74
2022/11/29 10:28:31;;;;;;;0.20;0.20;;;;;;;7.10;100.00;96589.31;4958460;28;20082;-75
2022/11/29 10:31:27;;;;;;;0.10;0.10;;;;;;;7.04;100.00;96598.19;4953773;28;20495;-74
2022/11/29 10:34:16;;;;;;;0.20;0.20;;;;;;;7.09;100.00;96595.69;4957221;28;20122;-74
2022/11/29 10:37:02;;;;;;;0.70;0.40;;;;;;;7.10;100.00;96596.50;4956440;28;20547;-72
2022/11/29 10:39:53;;;;;;;0.10;0.10;;;;;;;7.04;100.00;96603.50;4957719;28;20074;-75
2022/11/29 10:42:52;;;;;;;0.20;0.20;;;;;;;7.06;100.00;96601.44;4957199;28;20121;-73
2022/11/29 10:45:44;;;;;;;0.10;0.10;;;;;;;7.09;100.00;96605.50;4960403;28;20315;-76
2022/11/29 10:48:33;;;;;;;0.13;0.13;;;;;;;7.18;100.00;96599.66;4955909;28;20034;-76
2022/11/29 10:51:19;;;;;;;0.20;0.20;;;;;;;7.14;100.00;96602.97;4956581;28;20077;-73
2022/11/29 10:54:38;;;;;;;0.10;0.10;;;;;;;7.08;100.00;96601.19;4959800;28;20038;-75
2022/11/29 10:57:25;;;;;;;0.20;0.20;;;;;;;7.12;100.00;96595.22;4941330;28;20113;-72
2022/11/29 11:00:11;;;;;;;0.20;0.20;;;;;;;7.22;100.00;96600.00;4963391;28;20515;-73
2022/11/29 11:03:15;;;;;;;0.15;0.15;;;;;;;7.32;100.00;96600.31;4960121;28;20047;-73
2022/11/29 11:06:19;;;;;;;0.15;0.15;;;;;;;7.30;100.00;96607.69;4961575;28;20054;-72
2022/11/29 11:09:20;;;;;;;0.10;0.10;;;;;;;7.34;100.00;96605.41;4961919;28;20042;-75
2022/11/29 11:12:17;;;;;;;0.20;0.20;;;;;;;7.31;100.00;96596.00;4957192;28;20038;-73
2022/11/29 11:15:27;;;;;;;0.10;0.10;;;;;;;7.28;100.00;96595.66;4959828;28;20526;-75
2022/11/29 11:18:21;;;;;;;0.10;0.10;;;;;;;7.31;100.00;96606.66;4976831;28;20042;-74
2022/11/29 11:21:16;;;;;;;0.10;0.10;;;;;;;7.42;100.00;96605.91;4962480;28;20077;-72
2022/11/29 11:24:03;;;;;;;0.10;0.10;;;;;;;7.42;100.00;96607.75;4960186;28;20549;-73
2022/11/29 11:26:49;;;;;;;0.17;0.17;;;;;;;7.31;100.00;96606.66;4963278;28;20703;-74
2022/11/29 11:29:38;;;;;;;0.20;0.20;;;;;;;7.44;100.00;96605.69;4964649;28;20034;-73
2022/11/29 11:32:24;;;;;;;0.15;0.15;;;;;;;7.51;100.00;96609.88;4960447;28;20174;-73
2022/11/29 11:35:22;;;;;;;0.20;0.20;;;;;;;7.48;100.00;96602.34;4962296;28;20042;-72
2022/11/29 11:38:16;;;;;;;0.10;0.10;;;;;;;7.45;100.00;96608.09;4963065;28;20516;-74
2022/11/29 11:41:14;;;;;;;0.20;0.20;;;;;;;7.71;100.00;96600.81;4958959;28;20053;-71
2022/11/29 11:44:00;;;;;;;0.10;0.10;;;;;;;8.12;100.00;96608.00;4965655;28;20340;-75
2022/11/29 11:46:48;;;;;;;0.15;0.15;;;;;;;8.35;100.00;96605.38;4960728;28;20053;-71
2022/11/29 11:49:44;;;;;;;0.20;0.20;;;;;;;8.24;100.00;96618.66;4954741;28;20609;-74
2022/11/29 11:52:35;;;;;;;0.20;0.20;;;;;;;8.12;100.00;96612.50;4961157;28;20065;-75
2022/11/29 11:55:26;;;;;;;0.20;0.20;;;;;;;8.47;100.00;96621.38;4958919;28;20540;-72
2022/11/29 11:58:15;;;;;;;0.20;0.20;;;;;;;8.73;100.00;96625.47;4958105;28;20240;-73
2022/11/29 12:01:22;;;;;;;0.10;0.10;;;;;;;8.86;100.00;96622.53;4905709;28;10000383;-72
2022/11/29 12:04:20;;;;;;;0.10;0.10;;;;;;;8.68;100.00;96622.69;4617209;28;9999602;-73
2022/11/29 12:07:24;;;;;;;0.20;0.20;;;;;;;8.98;100.00;96614.53;4948391;28;20424;-75
2022/11/29 12:10:19;;;;;;;0.10;0.10;;;;;;;8.94;100.00;96613.38;4940175;28;20102;-76
2022/11/29 12:13:15;;;;;;;0.20;0.20;;;;;;;9.09;100.00;96619.03;4939973;28;20043;-75
2022/11/29 12:16:08;;;;;;;0.15;0.15;;;;;;;10.15;100.00;96614.13;4940550;28;20039;-77
2022/11/29 12:19:16;;;;;;;0.10;0.10;;;;;;;10.08;100.00;96612.66;4928617;28;20281;-73
2022/11/29 12:22:07;;;;;;;0.13;0.13;;;;;;;10.54;100.00;96616.91;4927159;28;20043;-77
2022/11/29 12:24:59;;;;;;;;;;;;;;;10.31;100.00;96613.34;4939593;28;20110;-72
2022/11/29 12:27:48;;;;;;;0.10;0.10;;;;;;;10.49;100.00;96619.50;4936155;28;19945;-74
2022/11/29 12:30:35;;;;;;;0.20;0.20;;;;;;;10.24;100.00;96615.38;4920322;28;20150;-75
2022/11/29 12:34:00;;;;;;;0.10;0.10;;;;;;;9.54;100.00;96631.69;4938378;28;21217;-75
2022/11/29 12:37:17;;;;;;;0.10;0.10;;;;;;;9.14;100.00;96632.50;4931051;28;20043;-75
2022/11/29 12:40:18;;;;;;;0.10;0.10;;;;;;;8.71;100.00;96632.88;4930649;28;20347;-74
2022/11/29 12:43:20;;;;;;;0.10;0.10;;;;;;;8.76;100.00;96635.66;4932489;28;20082;-75
2022/11/29 12:46:21;;;;;;;0.10;0.10;;;;;;;8.90;100.00;96634.38;4927736;28;20309;-75
2022/11/29 12:49:28;;;;;;;0.10;0.10;;;;;;;9.06;100.00;96635.53;4941377;28;20049;-75
2022/11/29 12:52:55;;;;;;;0.20;0.20;;;;;;;9.19;100.00;96640.63;4940659;28;20421;-75
2022/11/29 12:56:05;;;;;;;0.10;0.10;;;;;;;8.50;100.00;96644.94;4936551;28;20258;-75
2022/11/29 12:58:56;;;;;;;0.20;0.20;;;;;;;8.18;100.00;96651.59;4935927;28;20423;-74
2022/11/29 13:02:11;;;;;;;0.20;0.20;;;;;;;8.17;100.00;96647.25;4939295;28;20074;-75
2022/11/29 13:05:32;;;;;;;0.10;0.10;;;;;;;8.28;100.00;96639.31;4942503;28;20138;-73
2022/11/29 13:08:56;;;;;;;0.20;0.20;;;;;;;8.52;100.00;96652.72;4934499;28;20130;-75
2022/11/29 13:12:00;;;;;;;0.10;0.10;;;;;;;8.50;100.00;96655.59;4938938;28;20062;-76
2022/11/29 13:15:10;;;;;;;0.10;0.10;;;;;;;8.26;100.00;96659.25;4931618;28;20085;-75
2022/11/29 13:18:13;;;;;;;0.10;0.10;;;;;;;8.28;100.00;96659.81;4908374;28;20420;-75
2022/11/29 13:21:12;;;;;;;0.20;0.20;;;;;;;8.23;100.00;96663.16;4924305;28;20133;-75
2022/11/29 13:24:05;;;;;;;0.13;0.13;;;;;;;8.05;100.00;96666.72;4923806;28;20432;-73
2022/11/29 13:26:53;;;;;;;0.10;0.10;;;;;;;7.76;100.00;96665.69;4938266;28;20062;-74
2022/11/29 13:29:39;;;;;;;0.17;0.17;;;;;;;7.78;100.00;96668.94;4938821;28;20665;-72
2022/11/29 13:32:28;;;;;;;0.20;0.20;;;;;;;7.85;100.00;96673.34;4941764;28;20507;-75
2022/11/29 13:35:25;;;;;;;0.20;0.20;;;;;;;7.88;100.00;96667.59;4929259;28;20506;-74
2022/11/29 13:38:31;;;;;;;0.17;0.17;;;;;;;8.17;100.00;96677.44;4939034;28;20553;-75
2022/11/29 13:41:40;;;;;;;0.17;0.17;;;;;;;8.17;100.00;96680.09;4941689;28;20054;-75
2022/11/29 13:44:29;;;;;;;0.10;0.10;;;;;;;8.20;100.00;96676.16;4941502;28;20258;-75
2022/11/29 13:47:17;;;;;;;0.13;0.13;;;;;;;8.17;100.00;96685.44;4940516;28;20567;-74
2022/11/29 13:50:44;;;;;;;0.10;0.10;;;;;;;7.94;100.00;96686.16;4938546;28;20043;-77